sensor_id;sensor_type;location;lat;lon;timestamp;pressure;altitude;pressure_sealevel;temperature;humidity
19624;BME280;9959;49.798;9.928;2023-04-01T00:01:48;98057.44;;;9.37;83.30
19624;BME280;9959;49.798;9.928;2023-04-01T00:04:15;98059.72;;;9.45;82.49
19624;BME280;9959;49.798;9.928;2023-04-01T00:06:42;98059.63;;;9.40;82.47
19624;BME280;9959;49.798;9.928;2023-04-01T00:09:09;98064.09;;;9.35;82.95
19624;BME280;9959;49.798;9.928;2023-04-01T00:11:36;98054.84;;;9.42;81.65
19624;BME280;9959;49.798;9.928;2023-04-01T00:14:03;98060.34;;;9.36;82.19
19624;BME280;9959;49.798;9.928;2023-04-01T00:16:30;98051.25;;;9.37;81.87
19624;BME280;9959;49.798;9.928;2023-04-01T00:18:58;98050.44;;;9.36;82.13
19624;BME280;9959;49.798;9.928;2023-04-01T00:21:24;98052.28;;;9.36;81.81
19624;BME280;9959;49.798;9.928;2023-04-01T00:23:51;98042.13;;;9.38;81.56
19624;BME280;9959;49.798;9.928;2023-04-01T00:26:18;98042.13;;;9.38;81.69
19624;BME280;9959;49.798;9.928;2023-04-01T00:28:48;98053.53;;;9.45;80.77
19624;BME280;9959;49.798;9.928;2023-04-01T00:31:15;98043.13;;;9.48;80.38
19624;BME280;9959;49.798;9.928;2023-04-01T00:33:42;98039.84;;;9.46;80.84
19624;BME280;9959;49.798;9.928;2023-04-01T00:36:17;98050.28;;;9.43;80.86
19624;BME280;9959;49.798;9.928;2023-04-01T00:38:45;98047.81;;;9.41;80.60
19624;BME280;9959;49.798;9.928;2023-04-01T00:41:13;98046.19;;;9.40;80.91
19624;BME280;9959;49.798;9.928;2023-04-01T00:43:45;98053.69;;;9.38;81.18
19624;BME280;9959;49.798;9.928;2023-04-01T00:46:13;98042.94;;;9.38;81.34
19624;BME280;9959;49.798;9.928;2023-04-01T00:48:45;98056.84;;;9.35;81.46
19624;BME280;9959;49.798;9.928;2023-04-01T00:51:18;98053.34;;;9.35;81.27
19624;BME280;9959;49.798;9.928;2023-04-01T00:53:48;98057.91;;;9.34;81.19
19624;BME280;9959;49.798;9.928;2023-04-01T00:56:26;98061.34;;;9.30;81.69
19624;BME280;9959;49.798;9.928;2023-04-01T00:59:00;98064.59;;;9.32;81.50
19624;BME280;9959;49.798;9.928;2023-04-01T01:01:29;98070.47;;;9.29;81.42
19624;BME280;9959;49.798;9.928;2023-04-01T01:03:57;98046.00;;;9.30;81.13
19624;BME280;9959;49.798;9.928;2023-04-01T01:09:25;98056.53;;;9.32;81.37
19624;BME280;9959;49.798;9.928;2023-04-01T01:12:10;98064.09;;;9.35;80.46
19624;BME280;9959;49.798;9.928;2023-04-01T01:14:49;98057.56;;;9.31;81.52
19624;BME280;9959;49.798;9.928;2023-04-01T01:28:15;98047.34;;;9.28;81.01
19624;BME280;9959;49.798;9.928;2023-04-01T01:31:26;98045.22;;;9.30;80.89
19624;BME280;9959;49.798;9.928;2023-04-01T01:38:57;98034.72;;;9.28;80.52
19624;BME280;9959;49.798;9.928;2023-04-01T01:41:25;98037.88;;;9.25;80.50
19624;BME280;9959;49.798;9.928;2023-04-01T01:43:56;98031.69;;;9.25;80.86
19624;BME280;9959;49.798;9.928;2023-04-01T01:46:26;98028.44;;;9.23;80.82
19624;BME280;9959;49.798;9.928;2023-04-01T01:48:55;98036.75;;;9.21;80.93
19624;BME280;9959;49.798;9.928;2023-04-01T01:51:26;98031.13;;;9.23;80.46
19624;BME280;9959;49.798;9.928;2023-04-01T01:53:54;98040.72;;;9.19;81.04
19624;BME280;9959;49.798;9.928;2023-04-01T01:56:23;98029.97;;;9.19;80.62
19624;BME280;9959;49.798;9.928;2023-04-01T01:59:07;98026.91;;;9.27;79.68
19624;BME280;9959;49.798;9.928;2023-04-01T02:01:40;98044.00;;;9.21;80.19
19624;BME280;9959;49.798;9.928;2023-04-01T02:04:09;98033.66;;;9.29;79.71
19624;BME280;9959;49.798;9.928;2023-04-01T02:06:40;98035.78;;;9.27;79.83
19624;BME280;9959;49.798;9.928;2023-04-01T02:09:10;98026.25;;;9.20;80.61
19624;BME280;9959;49.798;9.928;2023-04-01T02:14:21;98039.19;;;9.23;80.48
19624;BME280;9959;49.798;9.928;2023-04-01T02:17:02;98034.16;;;9.26;79.88
19624;BME280;9959;49.798;9.928;2023-04-01T02:19:36;98025.19;;;9.21;80.17
19624;BME280;9959;49.798;9.928;2023-04-01T02:22:06;98019.00;;;9.20;80.42
19624;BME280;9959;49.798;9.928;2023-04-01T02:24:36;98023.78;;;9.18;80.80
19624;BME280;9959;49.798;9.928;2023-04-01T02:27:09;98025.75;;;9.23;80.12
19624;BME280;9959;49.798;9.928;2023-04-01T02:29:39;98034.28;;;9.20;80.72
19624;BME280;9959;49.798;9.928;2023-04-01T02:32:08;98032.66;;;9.19;80.43
19624;BME280;9959;49.798;9.928;2023-04-01T02:34:36;98032.66;;;9.19;80.49
19624;BME280;9959;49.798;9.928;2023-04-01T02:37:03;98028.91;;;9.20;79.92
19624;BME280;9959;49.798;9.928;2023-04-01T02:39:31;98040.16;;;9.16;80.42
19624;BME280;9959;49.798;9.928;2023-04-01T02:41:57;98030.47;;;9.15;80.57
19624;BME280;9959;49.798;9.928;2023-04-01T02:44:24;98039.66;;;9.20;79.83
19624;BME280;9959;49.798;9.928;2023-04-01T02:46:52;98036.88;;;9.14;80.33
19624;BME280;9959;49.798;9.928;2023-04-01T02:49:20;98032.31;;;9.15;80.29
19624;BME280;9959;49.798;9.928;2023-04-01T02:51:47;98030.22;;;9.17;80.03
19624;BME280;9959;49.798;9.928;2023-04-01T02:54:14;98036.41;;;9.18;79.67
19624;BME280;9959;49.798;9.928;2023-04-01T02:56:41;98040.81;;;9.24;78.87
19624;BME280;9959;49.798;9.928;2023-04-01T02:59:08;98040.25;;;9.22;79.21
19624;BME280;9959;49.798;9.928;2023-04-01T03:01:35;98039.09;;;9.18;79.71
19624;BME280;9959;49.798;9.928;2023-04-01T03:04:02;98038.63;;;9.21;79.75
19624;BME280;9959;49.798;9.928;2023-04-01T03:06:29;98040.25;;;9.22;79.43
19624;BME280;9959;49.798;9.928;2023-04-01T03:08:54;98036.75;;;9.21;79.03
19624;BME280;9959;49.798;9.928;2023-04-01T03:11:22;98037.56;;;9.22;79.32
19624;BME280;9959;49.798;9.928;2023-04-01T03:13:49;98040.97;;;9.17;79.59
19624;BME280;9959;49.798;9.928;2023-04-01T03:16:16;98031.50;;;9.14;79.95
19624;BME280;9959;49.798;9.928;2023-04-01T03:18:43;98046.00;;;9.13;79.98
19624;BME280;9959;49.798;9.928;2023-04-01T03:21:15;98029.50;;;9.22;79.58
19624;BME280;9959;49.798;9.928;2023-04-01T03:23:45;98040.72;;;9.19;79.48
19624;BME280;9959;49.798;9.928;2023-04-01T03:26:12;98034.88;;;9.22;79.63
19624;BME280;9959;49.798;9.928;2023-04-01T03:28:40;98031.59;;;9.20;79.77
19624;BME280;9959;49.798;9.928;2023-04-01T03:31:07;98049.13;;;9.22;79.59
19624;BME280;9959;49.798;9.928;2023-04-01T03:33:37;98032.66;;;9.19;79.87
19624;BME280;9959;49.798;9.928;2023-04-01T03:36:05;98046.09;;;9.19;79.46
19624;BME280;9959;49.798;9.928;2023-04-01T03:38:34;98044.38;;;9.12;79.93
19624;BME280;9959;49.798;9.928;2023-04-01T03:41:01;98045.19;;;9.13;79.96
19624;BME280;9959;49.798;9.928;2023-04-01T03:43:28;98051.38;;;9.13;79.82
19624;BME280;9959;49.798;9.928;2023-04-01T03:45:55;98050.06;;;9.16;79.77
19624;BME280;9959;49.798;9.928;2023-04-01T03:48:24;98042.75;;;9.11;80.41
19624;BME280;9959;49.798;9.928;2023-04-01T03:50:52;98061.16;;;9.20;79.37
19624;BME280;9959;49.798;9.928;2023-04-01T03:53:19;98046.09;;;9.19;79.80
19624;BME280;9959;49.798;9.928;2023-04-01T03:55:46;98045.03;;;9.20;79.68
19624;BME280;9959;49.798;9.928;2023-04-01T03:58:13;98057.91;;;9.18;80.34
19624;BME280;9959;49.798;9.928;2023-04-01T04:00:43;98052.34;;;9.07;81.46
19624;BME280;9959;49.798;9.928;2023-04-01T04:03:10;98046.81;;;9.14;80.46
19624;BME280;9959;49.798;9.928;2023-04-01T04:05:38;98050.91;;;9.16;80.34
19624;BME280;9959;49.798;9.928;2023-04-01T04:08:12;98045.84;;;9.20;80.08
19624;BME280;9959;49.798;9.928;2023-04-01T04:10:40;98060.81;;;9.16;80.18
19624;BME280;9959;49.798;9.928;2023-04-01T04:13:07;98039.09;;;9.18;79.97
19624;BME280;9959;49.798;9.928;2023-04-01T04:15:34;98039.19;;;9.23;79.34
19624;BME280;9959;49.798;9.928;2023-04-01T04:18:01;98031.84;;;9.18;79.46
19624;BME280;9959;49.798;9.928;2023-04-01T04:20:28;98044.56;;;9.23;79.27
19624;BME280;9959;49.798;9.928;2023-04-01T04:22:55;98049.94;;;9.23;79.76
19624;BME280;9959;49.798;9.928;2023-04-01T04:25:22;98049.94;;;9.23;79.47
19624;BME280;9959;49.798;9.928;2023-04-01T04:27:49;98059.28;;;9.20;79.54
19624;BME280;9959;49.798;9.928;2023-04-01T04:30:16;98054.16;;;9.19;79.65
19624;BME280;9959;49.798;9.928;2023-04-01T04:32:43;98050.91;;;9.16;79.84
19624;BME280;9959;49.798;9.928;2023-04-01T04:35:10;98049.25;;;9.15;79.74
19624;BME280;9959;49.798;9.928;2023-04-01T04:37:37;98049.25;;;9.15;80.13
19624;BME280;9959;49.798;9.928;2023-04-01T04:40:05;98046.56;;;9.15;80.33
19624;BME280;9959;49.798;9.928;2023-04-01T04:42:32;98065.88;;;9.12;80.44
19624;BME280;9959;49.798;9.928;2023-04-01T04:44:58;98052.91;;;9.09;80.97
19624;BME280;9959;49.798;9.928;2023-04-01T04:47:25;98062.50;;;9.05;81.07
19624;BME280;9959;49.798;9.928;2023-04-01T04:49:52;98062.44;;;9.00;81.82
19624;BME280;9959;49.798;9.928;2023-04-01T04:52:19;98055.44;;;8.99;81.90
19624;BME280;9959;49.798;9.928;2023-04-01T04:54:46;98056.72;;;8.97;82.07
19624;BME280;9959;49.798;9.928;2023-04-01T04:57:12;98055.09;;;8.96;82.63
19624;BME280;9959;49.798;9.928;2023-04-01T04:59:40;98064.91;;;8.90;82.91
19624;BME280;9959;49.798;9.928;2023-04-01T05:02:07;98056.28;;;8.88;83.04
19624;BME280;9959;49.798;9.928;2023-04-01T05:04:35;98054.06;;;8.85;83.76
19624;BME280;9959;49.798;9.928;2023-04-01T05:07:03;98062.72;;;8.87;83.61
19624;BME280;9959;49.798;9.928;2023-04-01T05:11:57;98055.69;;;8.86;83.52
19624;BME280;9959;49.798;9.928;2023-04-01T05:14:24;98061.22;;;8.79;84.17
19624;BME280;9959;49.798;9.928;2023-04-01T05:16:51;98048.00;;;8.90;83.30
19624;BME280;9959;49.798;9.928;2023-04-01T05:19:18;98063.19;;;8.84;82.97
19624;BME280;9959;49.798;9.928;2023-04-01T05:21:45;98050.81;;;8.83;82.62
19624;BME280;9959;49.798;9.928;2023-04-01T05:24:12;98047.44;;;8.76;83.29
19624;BME280;9959;49.798;9.928;2023-04-01T05:26:39;98046.63;;;8.75;83.57
19624;BME280;9959;49.798;9.928;2023-04-01T05:29:05;98048.84;;;8.78;83.10
19624;BME280;9959;49.798;9.928;2023-04-01T05:31:35;98052.91;;;8.81;83.01
19624;BME280;9959;49.798;9.928;2023-04-01T05:34:02;98054.53;;;8.82;82.46
19624;BME280;9959;49.798;9.928;2023-04-01T05:38:57;98056.84;;;8.90;81.89
19624;BME280;9959;49.798;9.928;2023-04-01T05:41:24;98048.56;;;8.92;81.16
19624;BME280;9959;49.798;9.928;2023-04-01T05:43:51;98047.75;;;8.91;81.83
19624;BME280;9959;49.798;9.928;2023-04-01T05:46:18;98045.97;;;8.97;80.57
19624;BME280;9959;49.798;9.928;2023-04-01T05:48:45;98045.63;;;8.93;81.39
19624;BME280;9959;49.798;9.928;2023-04-01T05:51:14;98066.66;;;8.96;80.97
19624;BME280;9959;49.798;9.928;2023-04-01T05:53:41;98050.06;;;8.99;80.68
19624;BME280;9959;49.798;9.928;2023-04-01T05:56:08;98053.78;;;8.98;80.78
19624;BME280;9959;49.798;9.928;2023-04-01T05:58:39;98051.13;;;8.98;80.81
19624;BME280;9959;49.798;9.928;2023-04-01T06:01:09;98048.44;;;8.98;80.65
19624;BME280;9959;49.798;9.928;2023-04-01T06:03:41;98057.06;;;9.00;80.61
19624;BME280;9959;49.798;9.928;2023-04-01T06:06:20;98026.75;;;9.05;79.99
19624;BME280;9959;49.798;9.928;2023-04-01T06:08:52;98048.13;;;9.11;79.97
19624;BME280;9959;49.798;9.928;2023-04-01T06:19:10;98054.16;;;9.19;79.07
19624;BME280;9959;49.798;9.928;2023-04-01T06:22:21;98048.63;;;9.25;79.47
19624;BME280;9959;49.798;9.928;2023-04-01T06:25:24;98059.97;;;9.27;79.11
19624;BME280;9959;49.798;9.928;2023-04-01T06:39:21;98050.66;;;9.35;78.52
19624;BME280;9959;49.798;9.928;2023-04-01T06:52:26;98047.03;;;9.74;76.70
19624;BME280;9959;49.798;9.928;2023-04-01T06:57:58;98052.56;;;9.84;76.67
19624;BME280;9959;49.798;9.928;2023-04-01T07:03:29;98046.88;;;9.81;76.86
19624;BME280;9959;49.798;9.928;2023-04-01T07:06:03;98043.66;;;10.01;76.42
19624;BME280;9959;49.798;9.928;2023-04-01T07:08:35;98047.19;;;9.84;77.01
19624;BME280;9959;49.798;9.928;2023-04-01T07:11:08;98046.78;;;9.76;76.62
19624;BME280;9959;49.798;9.928;2023-04-01T07:18:54;98045.38;;;9.90;77.30
19624;BME280;9959;49.798;9.928;2023-04-01T07:21:36;98046.50;;;10.11;76.00
19624;BME280;9959;49.798;9.928;2023-04-01T07:24:14;98045.69;;;10.10;75.47
19624;BME280;9959;49.798;9.928;2023-04-01T07:26:44;98044.88;;;10.10;75.43
19624;BME280;9959;49.798;9.928;2023-04-01T07:29:14;98048.03;;;10.07;76.63
19624;BME280;9959;49.798;9.928;2023-04-01T07:32:17;98039.47;;;10.10;75.37
19624;BME280;9959;49.798;9.928;2023-04-01T07:40:26;98038.16;;;10.29;73.83
19624;BME280;9959;49.798;9.928;2023-04-01T07:56:21;98055.22;;;10.40;75.50
19624;BME280;9959;49.798;9.928;2023-04-01T07:59:04;98051.19;;;10.37;75.69
19624;BME280;9959;49.798;9.928;2023-04-01T08:04:22;98058.81;;;10.45;77.37
19624;BME280;9959;49.798;9.928;2023-04-01T08:09:40;98054.00;;;10.09;78.93
19624;BME280;9959;49.798;9.928;2023-04-01T08:15:13;98055.97;;;9.97;79.57
19624;BME280;9959;49.798;9.928;2023-04-01T08:20:55;98060.44;;;10.25;78.76
19624;BME280;9959;49.798;9.928;2023-04-01T08:23:32;98066.75;;;10.18;80.09
19624;BME280;9959;49.798;9.928;2023-04-01T08:26:12;98072.09;;;10.30;81.03
19624;BME280;9959;49.798;9.928;2023-04-01T08:28:50;98071.69;;;10.43;82.97
19624;BME280;9959;49.798;9.928;2023-04-01T08:31:30;98072.56;;;10.27;83.71
19624;BME280;9959;49.798;9.928;2023-04-01T08:34:02;98078.06;;;9.99;82.75
19624;BME280;9959;49.798;9.928;2023-04-01T08:36:37;98079.13;;;9.81;86.63
19624;BME280;9959;49.798;9.928;2023-04-01T08:39:09;98084.41;;;9.59;86.41
19624;BME280;9959;49.798;9.928;2023-04-01T08:47:25;98083.50;;;9.37;89.78
19624;BME280;9959;49.798;9.928;2023-04-01T08:50:34;98084.63;;;9.24;89.62
19624;BME280;9959;49.798;9.928;2023-04-01T09:04:33;98075.38;;;9.65;88.48
19624;BME280;9959;49.798;9.928;2023-04-01T09:26:06;98082.22;;;10.67;84.08
19624;BME280;9959;49.798;9.928;2023-04-01T09:31:22;98073.91;;;10.90;84.07
19624;BME280;9959;49.798;9.928;2023-04-01T09:36:47;98057.88;;;10.78;83.67
19624;BME280;9959;49.798;9.928;2023-04-01T09:45:07;98079.63;;;11.21;82.05
19624;BME280;9959;49.798;9.928;2023-04-01T09:50:35;98078.84;;;10.98;79.49
19624;BME280;9959;49.798;9.928;2023-04-01T10:19:30;98080.06;;;11.66;77.65
19624;BME280;9959;49.798;9.928;2023-04-01T10:22:21;98077.31;;;11.61;77.97
19624;BME280;9959;49.798;9.928;2023-04-01T10:25:15;98085.72;;;11.38;79.78
19624;BME280;9959;49.798;9.928;2023-04-01T10:44:40;98091.66;;;10.86;84.59
19624;BME280;9959;49.798;9.928;2023-04-01T10:50:16;98090.00;;;11.07;82.97
19624;BME280;9959;49.798;9.928;2023-04-01T11:01:33;98082.09;;;11.27;83.00
19624;BME280;9959;49.798;9.928;2023-04-01T11:26:07;98080.84;;;10.42;95.55
19624;BME280;9959;49.798;9.928;2023-04-01T11:37:18;98105.66;;;10.44;95.49
19624;BME280;9959;49.798;9.928;2023-04-01T12:15:19;98110.97;;;10.39;99.16
19624;BME280;9959;49.798;9.928;2023-04-01T12:18:20;98115.50;;;10.56;96.04
19624;BME280;9959;49.798;9.928;2023-04-01T12:20:51;98116.97;;;10.63;96.72
19624;BME280;9959;49.798;9.928;2023-04-01T12:26:22;98116.31;;;10.78;97.41
19624;BME280;9959;49.798;9.928;2023-04-01T12:37:29;98123.72;;;10.88;94.60
19624;BME280;9959;49.798;9.928;2023-04-01T12:48:33;98113.63;;;11.53;90.72
19624;BME280;9959;49.798;9.928;2023-04-01T12:51:17;98122.78;;;11.26;90.57
19624;BME280;9959;49.798;9.928;2023-04-01T13:02:07;98135.47;;;11.03;95.92
19624;BME280;9959;49.798;9.928;2023-04-01T13:05:11;98132.81;;;10.81;95.98
19624;BME280;9959;49.798;9.928;2023-04-01T13:08:08;98134.50;;;10.88;96.66
19624;BME280;9959;49.798;9.928;2023-04-01T13:16:24;98129.94;;;10.66;100.00
19624;BME280;9959;49.798;9.928;2023-04-01T13:22:07;98127.41;;;10.60;100.00
19624;BME280;9959;49.798;9.928;2023-04-01T13:24:58;98137.13;;;10.61;100.00
19624;BME280;9959;49.798;9.928;2023-04-01T13:35:16;98140.94;;;10.65;100.00
19624;BME280;9959;49.798;9.928;2023-04-01T13:38:31;98143.28;;;10.39;100.00
19624;BME280;9959;49.798;9.928;2023-04-01T13:44:16;98143.00;;;10.41;100.00
19624;BME280;9959;49.798;9.928;2023-04-01T14:11:13;98147.25;;;10.54;100.00
19624;BME280;9959;49.798;9.928;2023-04-01T14:13:56;98152.78;;;10.64;100.00
19624;BME280;9959;49.798;9.928;2023-04-01T14:46:27;98177.47;;;10.99;98.07
19624;BME280;9959;49.798;9.928;2023-04-01T14:49:04;98181.97;;;10.72;99.95
19624;BME280;9959;49.798;9.928;2023-04-01T14:51:40;98177.53;;;10.44;100.00
19624;BME280;9959;49.798;9.928;2023-04-01T14:57:25;98177.91;;;10.52;100.00
19624;BME280;9959;49.798;9.928;2023-04-01T14:59:35;98182.69;;;10.67;100.00
19624;BME280;9959;49.798;9.928;2023-04-01T15:18:12;98189.34;;;10.60;100.00
19624;BME280;9959;49.798;9.928;2023-04-01T15:26:25;98186.78;;;10.70;100.00
19624;BME280;9959;49.798;9.928;2023-04-01T15:29:23;98196.09;;;11.01;100.00
19624;BME280;9959;49.798;9.928;2023-04-01T15:43:09;98222.75;;;10.13;100.00
19624;BME280;9959;49.798;9.928;2023-04-01T15:51:15;98226.25;;;10.26;100.00
19624;BME280;9959;49.798;9.928;2023-04-01T15:54:20;98224.59;;;10.41;100.00
19624;BME280;9959;49.798;9.928;2023-04-01T16:02:13;98223.28;;;10.44;99.72
19624;BME280;9959;49.798;9.928;2023-04-01T16:05:00;98229.91;;;10.36;100.00
19624;BME280;9959;49.798;9.928;2023-04-01T16:16:21;98236.16;;;10.08;100.00
19624;BME280;9959;49.798;9.928;2023-04-01T16:24:12;98248.44;;;10.33;98.67
19624;BME280;9959;49.798;9.928;2023-04-01T16:26:57;98257.13;;;10.40;97.61
19624;BME280;9959;49.798;9.928;2023-04-01T16:29:33;98251.38;;;10.31;97.97
19624;BME280;9959;49.798;9.928;2023-04-01T16:32:22;98253.09;;;10.37;97.49
19624;BME280;9959;49.798;9.928;2023-04-01T16:35:02;98252.28;;;10.37;98.23
19624;BME280;9959;49.798;9.928;2023-04-01T16:42:51;98266.50;;;10.21;98.60
19624;BME280;9959;49.798;9.928;2023-04-01T16:45:32;98268.84;;;10.17;99.19
19624;BME280;9959;49.798;9.928;2023-04-01T16:48:25;98269.75;;;10.06;99.10
19624;BME280;9959;49.798;9.928;2023-04-01T16:51:13;98279.25;;;9.97;99.13
19624;BME280;9959;49.798;9.928;2023-04-01T16:53:47;98275.25;;;9.99;98.80
19624;BME280;9959;49.798;9.928;2023-04-01T16:56:23;98280.97;;;10.03;98.69
19624;BME280;9959;49.798;9.928;2023-04-01T16:59:07;98287.91;;;9.99;98.98
19624;BME280;9959;49.798;9.928;2023-04-01T17:21:07;98313.19;;;9.86;99.33
19624;BME280;9959;49.798;9.928;2023-04-01T17:26:20;98307.81;;;9.86;98.79
19624;BME280;9959;49.798;9.928;2023-04-01T17:47:55;98343.78;;;9.68;99.09
19624;BME280;9959;49.798;9.928;2023-04-01T17:59:02;98353.53;;;9.46;100.00
19624;BME280;9959;49.798;9.928;2023-04-01T18:04:18;98362.53;;;9.40;99.85
19624;BME280;9959;49.798;9.928;2023-04-01T18:12:21;98377.50;;;9.36;99.57
19624;BME280;9959;49.798;9.928;2023-04-01T18:25:44;98403.19;;;9.32;99.66
19624;BME280;9959;49.798;9.928;2023-04-01T18:28:26;98403.31;;;9.37;99.40
19624;BME280;9959;49.798;9.928;2023-04-01T18:31:07;98409.16;;;9.34;99.97
19624;BME280;9959;49.798;9.928;2023-04-01T18:36:19;98413.28;;;9.25;100.00
19624;BME280;9959;49.798;9.928;2023-04-01T18:38:54;98423.56;;;9.28;99.38
19624;BME280;9959;49.798;9.928;2023-04-01T18:41:30;98430.56;;;9.29;100.00
19624;BME280;9959;49.798;9.928;2023-04-01T18:44:11;98437.22;;;9.26;100.00
19624;BME280;9959;49.798;9.928;2023-04-01T18:46:59;98437.59;;;9.30;99.79
19624;BME280;9959;49.798;9.928;2023-04-01T18:49:33;98438.28;;;9.25;99.86
19624;BME280;9959;49.798;9.928;2023-04-01T18:55:18;98445.66;;;9.30;100.00
19624;BME280;9959;49.798;9.928;2023-04-01T18:57:53;98449.84;;;9.26;99.79
19624;BME280;9959;49.798;9.928;2023-04-01T19:00:34;98449.25;;;9.24;99.96
19624;BME280;9959;49.798;9.928;2023-04-01T19:06:06;98461.41;;;9.26;99.31
19624;BME280;9959;49.798;9.928;2023-04-01T19:21:48;98473.31;;;9.19;99.11
19624;BME280;9959;49.798;9.928;2023-04-01T19:27:14;98477.06;;;9.18;99.51
19624;BME280;9959;49.798;9.928;2023-04-01T19:38:03;98489.44;;;9.19;99.21
19624;BME280;9959;49.798;9.928;2023-04-01T19:51:31;98488.84;;;9.16;97.95
19624;BME280;9959;49.798;9.928;2023-04-01T19:57:19;98498.53;;;9.18;98.20
19624;BME280;9959;49.798;9.928;2023-04-01T20:06:06;98505.53;;;9.07;99.25
19624;BME280;9959;49.798;9.928;2023-04-01T20:11:21;98511.25;;;9.10;98.25
19624;BME280;9959;49.798;9.928;2023-04-01T20:19:40;98525.16;;;9.07;98.10
19624;BME280;9959;49.798;9.928;2023-04-01T20:22:24;98518.13;;;9.06;98.48
19624;BME280;9959;49.798;9.928;2023-04-01T20:25:00;98521.88;;;9.05;97.60
19624;BME280;9959;49.798;9.928;2023-04-01T20:27:35;98526.78;;;9.08;97.54
19624;BME280;9959;49.798;9.928;2023-04-01T20:30:34;98525.03;;;9.02;98.09
19624;BME280;9959;49.798;9.928;2023-04-01T20:44:09;98535.31;;;9.05;98.21
19624;BME280;9959;49.798;9.928;2023-04-01T20:57:24;98563.69;;;9.01;97.32
19624;BME280;9959;49.798;9.928;2023-04-01T21:02:48;98565.06;;;8.92;97.39
19624;BME280;9959;49.798;9.928;2023-04-01T21:05:26;98564.00;;;8.93;97.89
19624;BME280;9959;49.798;9.928;2023-04-01T21:08:21;98569.97;;;8.95;97.23
19624;BME280;9959;49.798;9.928;2023-04-01T21:10:58;98575.34;;;8.95;97.70
19624;BME280;9959;49.798;9.928;2023-04-01T21:16:46;98577.28;;;8.88;97.12
19624;BME280;9959;49.798;9.928;2023-04-01T21:22:06;98587.88;;;8.83;97.75
19624;BME280;9959;49.798;9.928;2023-04-01T21:30:32;98586.25;;;8.82;97.50
19624;BME280;9959;49.798;9.928;2023-04-01T21:44:32;98613.56;;;8.79;96.90
19624;BME280;9959;49.798;9.928;2023-04-01T21:52:49;98626.94;;;8.67;98.22
19624;BME280;9959;49.798;9.928;2023-04-01T22:00:17;98637.13;;;8.77;97.12
19624;BME280;9959;49.798;9.928;2023-04-01T22:13:19;98643.78;;;8.74;96.68
19624;BME280;9959;49.798;9.928;2023-04-01T22:24:37;98654.97;;;8.71;96.00
19624;BME280;9959;49.798;9.928;2023-04-01T22:27:24;98652.06;;;8.73;97.04
19624;BME280;9959;49.798;9.928;2023-04-01T22:32:50;98663.63;;;8.73;96.55
19624;BME280;9959;49.798;9.928;2023-04-01T22:35:43;98668.53;;;8.76;96.30
19624;BME280;9959;49.798;9.928;2023-04-01T22:41:36;98673.56;;;8.73;96.75
19624;BME280;9959;49.798;9.928;2023-04-01T22:47:04;98683.69;;;8.71;96.50
19624;BME280;9959;49.798;9.928;2023-04-01T22:49:45;98672.19;;;8.82;95.57
19624;BME280;9959;49.798;9.928;2023-04-01T22:55:23;98689.66;;;8.73;96.17
19624;BME280;9959;49.798;9.928;2023-04-01T22:58:34;98684.72;;;8.70;96.87
19624;BME280;9959;49.798;9.928;2023-04-01T23:01:07;98689.06;;;8.71;96.92
19624;BME280;9959;49.798;9.928;2023-04-01T23:03:41;98690.09;;;8.70;97.58
19624;BME280;9959;49.798;9.928;2023-04-01T23:06:29;98699.66;;;8.66;97.63
19624;BME280;9959;49.798;9.928;2023-04-01T23:09:19;98692.03;;;8.63;97.38
19624;BME280;9959;49.798;9.928;2023-04-01T23:11:54;98696.81;;;8.61;97.77
19624;BME280;9959;49.798;9.928;2023-04-01T23:17:33;98703.38;;;8.65;97.87
19624;BME280;9959;49.798;9.928;2023-04-01T23:38:14;98722.44;;;8.57;98.37
19624;BME280;9959;49.798;9.928;2023-04-01T23:40:42;98730.94;;;8.54;97.70
19624;BME280;9959;49.798;9.928;2023-04-01T23:43:25;98737.94;;;8.55;98.40
19624;BME280;9959;49.798;9.928;2023-04-01T23:45:56;98732.41;;;8.49;97.43
19624;BME280;9959;49.798;9.928;2023-04-01T23:48:36;98736.91;;;8.56;97.40
19624;BME280;9959;49.798;9.928;2023-04-01T23:51:12;98743.09;;;8.56;98.42
19624;BME280;9959;49.798;9.928;2023-04-01T23:53:44;98751.59;;;8.53;98.98
19624;BME280;9959;49.798;9.928;2023-04-01T23:56:11;98737.72;;;8.56;98.77
19624;BME280;9959;49.798;9.928;2023-04-01T23:58:43;98748.09;;;8.53;99.28
